createdAt,value
2018-11-05T00:00:20.143Z,99.90
2018-11-05T00:02:51.019Z,99.90
2018-11-05T00:05:20.600Z,99.90
2018-11-05T00:07:49.849Z,99.90
2018-11-05T00:10:19.092Z,99.90
2018-11-05T00:12:48.415Z,99.90
2018-11-05T00:15:17.700Z,99.90
2018-11-05T00:17:46.992Z,99.90
2018-11-05T00:20:16.237Z,99.90
2018-11-05T00:22:45.596Z,99.90
2018-11-05T00:25:14.920Z,99.90
2018-11-05T00:27:44.184Z,99.90
2018-11-05T00:30:14.522Z,99.90
2018-11-05T00:32:44.334Z,99.90
2018-11-05T00:35:13.942Z,99.90
2018-11-05T00:37:43.164Z,99.90
2018-11-05T00:40:16.540Z,99.90
2018-11-05T00:42:46.452Z,99.90
2018-11-05T00:45:15.958Z,99.90
2018-11-05T00:47:45.460Z,99.90
2018-11-05T00:50:15.808Z,99.90
2018-11-05T00:52:45.152Z,99.90
2018-11-05T00:55:14.589Z,99.90
2018-11-05T00:57:43.816Z,99.90
2018-11-05T01:00:15.446Z,99.90
2018-11-05T01:02:44.785Z,99.90
2018-11-05T01:05:15.280Z,99.90
2018-11-05T01:07:45.296Z,99.90
2018-11-05T01:10:15.720Z,99.90
2018-11-05T01:12:45.293Z,99.90
2018-11-05T01:15:16.675Z,99.90
2018-11-05T01:17:45.905Z,99.90
2018-11-05T01:20:16.093Z,99.90
2018-11-05T01:22:46.489Z,99.90
2018-11-05T01:25:15.720Z,99.90
2018-11-05T01:27:44.945Z,99.90
2018-11-05T01:30:14.521Z,99.90
2018-11-05T01:32:43.815Z,99.90
2018-11-05T01:35:13.778Z,99.90
2018-11-05T01:37:43.057Z,99.90
2018-11-05T01:40:14.353Z,99.90
2018-11-05T01:42:43.884Z,99.90
2018-11-05T01:45:14.010Z,99.90
2018-11-05T01:47:43.721Z,99.90
2018-11-05T01:50:14.968Z,99.90
2018-11-05T01:52:44.575Z,99.90
2018-11-05T01:55:13.904Z,99.90
2018-11-05T01:57:43.375Z,99.90
2018-11-05T02:00:15.872Z,99.90
2018-11-05T02:02:46.076Z,99.90
2018-11-05T02:05:15.310Z,99.90
2018-11-05T02:07:45.496Z,99.90
2018-11-05T02:10:17.009Z,99.90
2018-11-05T02:12:46.452Z,99.90
2018-11-05T02:15:15.777Z,99.90
2018-11-05T02:17:46.079Z,99.90
2018-11-05T02:20:16.324Z,99.90
2018-11-05T02:22:45.907Z,99.90
2018-11-05T02:25:15.516Z,99.90
2018-11-05T02:27:44.732Z,99.90
2018-11-05T02:30:18.925Z,99.90
2018-11-05T02:32:48.632Z,99.90
2018-11-05T02:35:18.449Z,99.90
2018-11-05T02:37:48.260Z,99.90
2018-11-05T02:40:18.789Z,99.90
2018-11-05T02:42:48.468Z,99.90
2018-11-05T02:45:18.827Z,99.90
2018-11-05T02:47:48.053Z,99.90
2018-11-05T02:50:17.596Z,99.90
2018-11-05T02:52:47.649Z,99.90
2018-11-05T02:55:16.944Z,99.90
2018-11-05T02:57:46.171Z,99.90
2018-11-05T03:00:16.787Z,99.90
2018-11-05T03:02:46.080Z,99.90
2018-11-05T03:05:16.608Z,99.90
2018-11-05T03:07:46.491Z,99.90
2018-11-05T03:10:16.132Z,99.90
2018-11-05T03:12:46.273Z,99.90
2018-11-05T03:15:16.981Z,99.90
2018-11-05T03:17:46.353Z,99.90
2018-11-05T03:20:16.202Z,99.90
2018-11-05T03:22:45.787Z,99.90
2018-11-05T03:25:15.073Z,99.90
2018-11-05T03:27:44.302Z,99.90
2018-11-05T03:30:15.748Z,99.90
2018-11-05T03:32:45.040Z,99.90
2018-11-05T03:35:14.864Z,99.90
2018-11-05T03:37:45.045Z,99.90
2018-11-05T03:40:14.446Z,99.90
2018-11-05T03:42:44.313Z,99.90
2018-11-05T03:45:14.627Z,99.90
2018-11-05T03:47:44.134Z,99.90
2018-11-05T03:50:15.073Z,99.90
2018-11-05T03:52:45.090Z,99.90
2018-11-05T03:55:15.209Z,99.90
2018-11-05T03:57:44.577Z,99.90
2018-11-05T04:00:15.141Z,99.90
2018-11-05T04:02:44.447Z,99.90
2018-11-05T04:05:13.742Z,99.90
2018-11-05T04:07:42.977Z,99.90
2018-11-05T04:10:13.266Z,99.90
2018-11-05T04:12:42.531Z,99.90
2018-11-05T04:15:12.087Z,99.90
2018-11-05T04:17:41.584Z,99.90
2018-11-05T04:20:13.129Z,99.90
2018-11-05T04:22:43.448Z,99.90
2018-11-05T04:25:12.721Z,99.90
2018-11-05T04:27:41.993Z,99.90
2018-11-05T04:30:13.709Z,99.90
2018-11-05T04:32:43.324Z,99.90
2018-11-05T04:35:13.128Z,99.90
2018-11-05T04:37:42.396Z,99.90
2018-11-05T04:40:12.136Z,99.90
2018-11-05T04:42:41.440Z,99.90
2018-11-05T04:45:12.272Z,99.90
2018-11-05T04:47:42.089Z,99.90
2018-11-05T04:50:17.813Z,99.90
2018-11-05T04:52:47.149Z,99.90
2018-11-05T04:55:16.370Z,99.90
2018-11-05T04:57:45.604Z,99.90
2018-11-05T05:00:16.372Z,99.90
2018-11-05T05:02:45.775Z,99.90
2018-11-05T05:05:16.100Z,99.90
2018-11-05T05:07:45.366Z,99.90
2018-11-05T05:10:14.685Z,99.90
2018-11-05T05:12:44.512Z,99.90
2018-11-05T05:15:13.859Z,99.90
2018-11-05T05:17:43.177Z,99.90
2018-11-05T05:20:15.997Z,99.90
2018-11-05T05:22:45.670Z,99.90
2018-11-05T05:25:15.425Z,99.90
2018-11-05T05:27:44.639Z,99.90
2018-11-05T05:30:18.965Z,99.90
2018-11-05T05:32:49.100Z,99.90
2018-11-05T05:35:19.275Z,99.90
2018-11-05T05:37:48.512Z,99.90
2018-11-05T05:40:17.805Z,99.90
2018-11-05T05:42:47.226Z,99.90
2018-11-05T05:45:16.684Z,99.90
2018-11-05T05:47:46.184Z,99.90
2018-11-05T05:50:17.520Z,99.90
2018-11-05T05:52:48.081Z,99.90
2018-11-05T05:55:17.417Z,99.90
2018-11-05T05:57:46.733Z,99.90
2018-11-05T06:00:17.501Z,99.90
2018-11-05T06:02:46.804Z,99.90
2018-11-05T06:05:16.403Z,99.90
2018-11-05T06:07:45.647Z,99.90
2018-11-05T06:10:16.333Z,99.90
2018-11-05T06:12:45.878Z,99.90
2018-11-05T06:15:16.422Z,99.90
2018-11-05T06:17:45.717Z,99.90
2018-11-05T06:20:18.218Z,99.90
2018-11-05T06:22:48.342Z,99.90
2018-11-05T06:25:18.009Z,99.90
2018-11-05T06:27:47.473Z,99.90
2018-11-05T06:30:18.669Z,99.90
2018-11-05T06:32:48.976Z,99.90
2018-11-05T06:35:18.647Z,99.90
2018-11-05T06:37:47.860Z,99.90
2018-11-05T06:40:18.622Z,99.90
2018-11-05T06:42:48.136Z,99.90
2018-11-05T06:45:19.597Z,99.90
2018-11-05T06:47:49.380Z,99.90
2018-11-05T06:50:20.805Z,99.90
2018-11-05T06:52:50.254Z,99.90
2018-11-05T06:55:19.562Z,99.90
2018-11-05T06:57:48.947Z,99.90
2018-11-05T07:00:20.573Z,99.90
2018-11-05T07:02:49.949Z,99.90
2018-11-05T07:05:19.305Z,99.90
2018-11-05T07:07:48.626Z,99.90
2018-11-05T07:10:18.536Z,99.90
2018-11-05T07:12:47.929Z,99.90
2018-11-05T07:15:18.322Z,99.90
2018-11-05T07:17:48.547Z,99.90
2018-11-05T07:20:18.987Z,99.90
2018-11-05T07:22:49.101Z,99.90
2018-11-05T07:25:18.385Z,99.90
2018-11-05T07:27:47.735Z,99.90
2018-11-05T07:30:20.320Z,99.90
2018-11-05T07:32:50.820Z,99.90
2018-11-05T07:35:20.096Z,99.90
2018-11-05T07:37:49.401Z,99.90
2018-11-05T07:40:19.561Z,99.90
2018-11-05T07:42:48.917Z,99.90
2018-11-05T07:45:21.603Z,99.90
2018-11-05T07:47:50.920Z,99.90
2018-11-05T07:50:21.265Z,99.90
2018-11-05T07:52:51.169Z,99.90
2018-11-05T07:55:20.741Z,99.90
2018-11-05T07:57:50.668Z,99.90
2018-11-05T08:00:25.072Z,99.90
2018-11-05T08:02:56.592Z,99.90
2018-11-05T08:05:26.141Z,99.90
2018-11-05T08:07:55.508Z,99.90
2018-11-05T08:10:24.849Z,99.90
2018-11-05T08:12:54.239Z,99.90
2018-11-05T08:15:24.675Z,99.90
2018-11-05T08:17:54.517Z,99.90
2018-11-05T08:20:23.840Z,99.90
2018-11-05T08:22:53.193Z,99.90
2018-11-05T08:25:22.461Z,99.90
2018-11-05T08:27:51.789Z,99.90
2018-11-05T08:30:25.105Z,99.90
2018-11-05T08:32:54.721Z,99.90
2018-11-05T08:35:24.022Z,99.90
2018-11-05T08:37:53.845Z,99.90
2018-11-05T08:40:25.408Z,99.90
2018-11-05T08:42:55.488Z,99.90
2018-11-05T08:45:26.139Z,99.90
2018-11-05T08:47:55.410Z,99.90
2018-11-05T08:50:25.200Z,99.90
2018-11-05T08:52:54.543Z,99.90
2018-11-05T08:55:24.983Z,99.90
2018-11-05T08:57:54.288Z,99.90
2018-11-05T09:00:28.576Z,99.90
2018-11-05T09:02:59.004Z,99.90
2018-11-05T09:05:28.298Z,99.90
2018-11-05T09:07:57.567Z,99.90
2018-11-05T09:10:27.047Z,99.90
2018-11-05T09:12:56.216Z,99.90
2018-11-05T09:15:25.497Z,99.90
2018-11-05T09:17:54.788Z,99.90
2018-11-05T09:20:24.086Z,99.90
2018-11-05T09:22:53.825Z,99.90
2018-11-05T09:25:23.072Z,99.90
2018-11-05T09:27:52.419Z,99.90
2018-11-05T09:30:24.131Z,99.90
2018-11-05T09:32:53.501Z,99.90
2018-11-05T09:35:22.876Z,99.90
2018-11-05T09:37:52.168Z,99.90
2018-11-05T09:40:22.905Z,99.90
2018-11-05T09:42:52.639Z,99.90
2018-11-05T09:45:28.086Z,99.90
2018-11-05T09:47:57.451Z,99.90
2018-11-05T09:50:26.829Z,99.90
2018-11-05T09:52:56.177Z,99.90
2018-11-05T09:55:25.467Z,99.90
2018-11-05T09:57:54.792Z,99.90
2018-11-05T10:00:27.274Z,99.90
2018-11-05T10:03:17.096Z,99.90
2018-11-05T10:05:46.759Z,99.90
2018-11-05T10:08:16.952Z,99.90
2018-11-05T10:10:46.314Z,99.90
2018-11-05T10:13:15.687Z,99.90
2018-11-05T10:15:44.996Z,99.90
2018-11-05T10:18:14.328Z,99.90
2018-11-05T10:20:43.612Z,99.90
2018-11-05T10:23:12.988Z,99.90
2018-11-05T10:25:42.284Z,99.90
2018-11-05T10:28:11.624Z,99.90
2018-11-05T10:30:41.242Z,99.90
2018-11-05T10:33:10.649Z,99.90
2018-11-05T10:35:45.117Z,99.90
2018-11-05T10:38:14.449Z,99.90
2018-11-05T10:40:43.701Z,99.90
2018-11-05T10:43:12.993Z,99.90
2018-11-05T10:45:42.257Z,99.90
2018-11-05T10:48:11.579Z,99.90
2018-11-05T10:50:40.951Z,99.90
2018-11-05T10:53:10.223Z,99.90
2018-11-05T10:55:39.598Z,99.90
2018-11-05T10:58:09.006Z,99.90
2018-11-05T11:00:43.232Z,99.90
2018-11-05T11:03:16.404Z,99.90
2018-11-05T11:05:45.628Z,99.90
2018-11-05T11:08:14.897Z,99.90
2018-11-05T11:10:44.228Z,99.90
2018-11-05T11:13:13.528Z,99.90
2018-11-05T11:15:42.833Z,99.90
2018-11-05T11:18:12.095Z,99.90
2018-11-05T11:20:41.420Z,96.20
2018-11-05T11:23:11.752Z,96.20
2018-11-05T11:25:41.033Z,96.00
2018-11-05T11:28:10.279Z,98.70
2018-11-05T11:30:39.599Z,98.20
2018-11-05T11:33:08.959Z,93.30
2018-11-05T11:35:38.224Z,92.90
2018-11-05T11:38:07.538Z,97.20
2018-11-05T11:40:36.876Z,93.50
2018-11-05T11:43:06.329Z,97.60
2018-11-05T11:45:35.649Z,96.30
2018-11-05T11:48:04.944Z,92.40
2018-11-05T11:50:34.222Z,90.80
2018-11-05T11:53:03.648Z,95.10
2018-11-05T11:55:32.909Z,92.90
2018-11-05T11:58:02.178Z,96.30
2018-11-05T12:00:31.441Z,95.30
2018-11-05T12:03:00.744Z,95.60
2018-11-05T12:05:30.074Z,96.70
2018-11-05T12:07:59.332Z,99.70
2018-11-05T12:10:28.539Z,99.90
2018-11-05T12:12:58.803Z,99.90
2018-11-05T12:15:28.195Z,99.90
2018-11-05T12:17:57.493Z,99.90
2018-11-05T12:20:26.783Z,99.90
2018-11-05T12:22:55.989Z,99.90
2018-11-05T12:25:25.224Z,99.90
2018-11-05T12:27:54.461Z,99.90
2018-11-05T12:30:24.477Z,99.90
2018-11-05T12:32:54.604Z,99.90
2018-11-05T12:35:23.885Z,99.90
2018-11-05T12:37:54.197Z,99.90
2018-11-05T12:40:23.860Z,99.90
2018-11-05T12:42:53.486Z,99.90
2018-11-05T12:45:22.764Z,99.90
2018-11-05T12:47:52.398Z,99.90
2018-11-05T12:50:23.016Z,99.90
2018-11-05T12:52:53.632Z,99.90
2018-11-05T12:55:22.935Z,99.90
2018-11-05T12:57:52.229Z,99.90
2018-11-05T13:00:22.943Z,99.90
2018-11-05T13:02:53.881Z,99.90
2018-11-05T13:05:24.022Z,99.90
2018-11-05T13:07:53.300Z,99.90
2018-11-05T13:10:22.636Z,99.90
2018-11-05T13:12:51.983Z,99.90
2018-11-05T13:15:21.506Z,99.90
2018-11-05T13:17:50.770Z,99.90
2018-11-05T13:20:21.471Z,99.90
2018-11-05T13:22:50.973Z,99.90
2018-11-05T13:25:20.242Z,99.90
2018-11-05T13:27:50.573Z,99.90
2018-11-05T13:30:19.866Z,99.90
2018-11-05T13:32:49.205Z,99.90
2018-11-05T13:35:19.806Z,99.90
2018-11-05T13:37:49.492Z,99.90
2018-11-05T13:40:19.734Z,99.90
2018-11-05T13:42:49.485Z,99.90
2018-11-05T13:45:19.221Z,99.90
2018-11-05T13:47:49.325Z,99.90
2018-11-05T13:50:18.555Z,99.90
2018-11-05T13:52:47.740Z,99.90
2018-11-05T13:55:17.590Z,99.90
2018-11-05T13:57:48.024Z,99.90
2018-11-05T14:00:18.540Z,99.90
2018-11-05T14:02:48.100Z,99.90
2018-11-05T14:05:17.385Z,99.90
2018-11-05T14:07:46.695Z,99.90
2018-11-05T14:10:18.584Z,99.90
2018-11-05T14:12:48.350Z,99.90
2018-11-05T14:15:18.167Z,99.90
2018-11-05T14:17:47.655Z,99.90
2018-11-05T14:20:18.386Z,99.90
2018-11-05T14:22:47.842Z,99.90
2018-11-05T14:25:18.215Z,99.90
2018-11-05T14:27:49.055Z,99.90
2018-11-05T14:30:18.415Z,99.90
2018-11-05T14:32:48.793Z,99.90
2018-11-05T14:35:18.101Z,99.90
2018-11-05T14:37:48.389Z,99.90
2018-11-05T14:40:20.012Z,99.90
2018-11-05T14:42:49.469Z,99.90
2018-11-05T14:45:20.070Z,99.90
2018-11-05T14:47:50.409Z,99.90
2018-11-05T14:50:21.207Z,99.90
2018-11-05T14:52:50.676Z,99.90
2018-11-05T14:55:20.809Z,99.90
2018-11-05T14:57:51.208Z,99.90
2018-11-05T15:00:28.135Z,99.90
2018-11-05T15:02:58.430Z,99.90
2018-11-05T15:05:27.732Z,99.90
2018-11-05T15:07:57.560Z,99.90
2018-11-05T15:10:27.465Z,99.90
2018-11-05T15:12:56.840Z,99.90
2018-11-05T15:15:26.273Z,99.90
2018-11-05T15:17:55.565Z,99.90
2018-11-05T15:20:24.892Z,99.90
2018-11-05T15:22:54.327Z,99.90
2018-11-05T15:25:23.697Z,99.90
2018-11-05T15:27:52.959Z,99.90
2018-11-05T15:30:23.185Z,99.90
2018-11-05T15:32:52.685Z,99.90
2018-11-05T15:35:22.027Z,99.90
2018-11-05T15:37:51.257Z,99.90
2018-11-05T15:40:22.512Z,99.90
2018-11-05T15:42:52.026Z,99.90
2018-11-05T15:45:22.057Z,99.90
2018-11-05T15:47:51.373Z,99.90
2018-11-05T15:50:21.468Z,99.90
2018-11-05T15:52:52.837Z,99.90
2018-11-05T15:55:22.709Z,99.90
2018-11-05T15:57:52.120Z,99.90
2018-11-05T16:00:24.414Z,99.90
2018-11-05T16:03:01.059Z,99.90
2018-11-05T16:05:30.388Z,99.90
2018-11-05T16:08:00.498Z,99.90
2018-11-05T16:10:31.690Z,99.90
2018-11-05T16:13:03.103Z,99.90
2018-11-05T16:15:32.500Z,99.90
2018-11-05T16:18:01.877Z,99.90
2018-11-05T16:20:31.314Z,99.90
2018-11-05T16:23:00.717Z,99.90
2018-11-05T16:25:30.126Z,99.90
2018-11-05T16:27:59.409Z,99.90
2018-11-05T16:30:28.760Z,99.90
2018-11-05T16:32:58.193Z,99.90
2018-11-05T16:35:27.560Z,99.90
2018-11-05T16:37:56.880Z,99.90
2018-11-05T16:40:27.056Z,99.90
2018-11-05T16:42:57.512Z,99.90
2018-11-05T16:45:34.661Z,99.90
2018-11-05T16:48:05.475Z,99.90
2018-11-05T16:50:35.497Z,99.90
2018-11-05T16:53:06.716Z,99.90
2018-11-05T16:55:37.965Z,99.90
2018-11-05T16:58:08.774Z,99.90
2018-11-05T17:00:39.655Z,99.90
2018-11-05T17:03:11.565Z,99.90
2018-11-05T17:05:42.747Z,99.90
2018-11-05T17:08:13.502Z,99.90
2018-11-05T17:10:45.269Z,99.90
2018-11-05T17:13:17.089Z,99.90
2018-11-05T17:15:47.615Z,99.90
2018-11-05T17:18:17.500Z,99.90
2018-11-05T17:20:46.986Z,99.90
2018-11-05T17:23:16.785Z,99.90
2018-11-05T17:25:46.582Z,99.90
2018-11-05T17:28:15.948Z,99.90
2018-11-05T17:30:45.276Z,99.90
2018-11-05T17:33:14.599Z,99.90
2018-11-05T17:35:43.884Z,99.90
2018-11-05T17:38:13.165Z,99.90
2018-11-05T17:40:42.398Z,99.90
2018-11-05T17:43:11.685Z,99.90
2018-11-05T17:45:40.939Z,99.90
2018-11-05T17:48:10.205Z,99.90
2018-11-05T17:50:39.625Z,99.90
2018-11-05T17:53:09.004Z,99.90
2018-11-05T17:55:38.308Z,99.90
2018-11-05T17:58:07.717Z,99.90
2018-11-05T18:00:37.112Z,99.90
2018-11-05T18:03:06.606Z,99.90
2018-11-05T18:05:35.925Z,99.90
2018-11-05T18:08:05.228Z,99.90
2018-11-05T18:10:34.495Z,99.90
2018-11-05T18:13:03.803Z,99.90
2018-11-05T18:15:33.180Z,99.90
2018-11-05T18:18:02.433Z,99.90
2018-11-05T18:20:31.709Z,99.90
2018-11-05T18:23:01.312Z,99.90
2018-11-05T18:25:30.602Z,99.90
2018-11-05T18:27:59.893Z,99.90
2018-11-05T18:30:29.226Z,99.90
2018-11-05T18:32:58.598Z,99.90
2018-11-05T18:35:27.900Z,99.90
2018-11-05T18:37:57.239Z,99.90
2018-11-05T18:40:26.506Z,99.90
2018-11-05T18:42:55.890Z,99.90
2018-11-05T18:45:25.211Z,99.90
2018-11-05T18:47:54.492Z,99.90
2018-11-05T18:50:23.921Z,99.90
2018-11-05T18:52:53.100Z,99.90
2018-11-05T18:55:22.394Z,99.90
2018-11-05T18:57:51.725Z,99.90
2018-11-05T19:00:22.539Z,99.90
2018-11-05T19:02:52.904Z,99.90
2018-11-05T19:05:23.089Z,99.90
2018-11-05T19:07:52.494Z,99.90
2018-11-05T19:10:22.116Z,99.90
2018-11-05T19:12:52.330Z,99.90
2018-11-05T19:15:21.718Z,99.90
2018-11-05T19:17:51.360Z,99.90
2018-11-05T19:20:20.658Z,99.90
2018-11-05T19:22:50.189Z,99.90
2018-11-05T19:25:19.527Z,99.90
2018-11-05T19:27:49.320Z,99.90
2018-11-05T19:30:21.968Z,99.90
2018-11-05T19:32:51.402Z,99.90
2018-11-05T19:35:20.755Z,99.90
2018-11-05T19:37:50.032Z,99.90
2018-11-05T19:40:19.652Z,99.90
2018-11-05T19:42:49.526Z,99.90
2018-11-05T19:45:19.984Z,99.90
2018-11-05T19:47:49.291Z,99.90
2018-11-05T19:50:19.812Z,99.90
2018-11-05T19:52:50.228Z,99.90
2018-11-05T19:55:20.044Z,99.90
2018-11-05T19:57:50.256Z,99.90
2018-11-05T20:00:28.522Z,99.90
2018-11-05T20:03:00.569Z,99.90
2018-11-05T20:05:29.921Z,99.90
2018-11-05T20:07:59.781Z,99.90
2018-11-05T20:10:29.082Z,99.90
2018-11-05T20:12:58.505Z,99.90
2018-11-05T20:15:27.907Z,99.90
2018-11-05T20:17:57.389Z,99.90
2018-11-05T20:20:27.294Z,99.90
2018-11-05T20:22:56.646Z,99.90
2018-11-05T20:25:25.896Z,99.90
2018-11-05T20:27:55.863Z,99.90
2018-11-05T20:30:26.359Z,99.90
2018-11-05T20:32:56.898Z,99.90
2018-11-05T20:35:25.887Z,99.90
2018-11-05T20:37:55.525Z,99.90
2018-11-05T20:40:24.849Z,99.90
2018-11-05T20:42:54.229Z,99.90
2018-11-05T20:45:24.176Z,99.90
2018-11-05T20:47:53.376Z,99.90
2018-11-05T20:50:22.602Z,99.90
2018-11-05T20:52:51.876Z,99.90
2018-11-05T20:55:21.144Z,99.90
2018-11-05T20:57:50.373Z,99.90
2018-11-05T21:00:20.871Z,99.90
2018-11-05T21:02:50.175Z,99.90
2018-11-05T21:05:19.533Z,99.90
2018-11-05T21:07:49.695Z,99.90
2018-11-05T21:10:19.030Z,99.90
2018-11-05T21:12:48.320Z,99.90
2018-11-05T21:15:18.858Z,99.90
2018-11-05T21:17:49.053Z,99.90
2018-11-05T21:20:18.367Z,99.90
2018-11-05T21:22:48.211Z,99.90
2018-11-05T21:25:17.354Z,99.90
2018-11-05T21:27:46.782Z,99.90
2018-11-05T21:30:17.724Z,99.90
2018-11-05T21:32:47.049Z,99.90
2018-11-05T21:35:17.560Z,99.90
2018-11-05T21:37:46.787Z,99.90
2018-11-05T21:40:17.085Z,99.90
2018-11-05T21:42:46.780Z,99.90
2018-11-05T21:45:16.601Z,99.90
2018-11-05T21:47:46.314Z,99.90
2018-11-05T21:50:17.035Z,99.90
2018-11-05T21:52:46.652Z,99.90
2018-11-05T21:55:15.920Z,99.90
2018-11-05T21:57:47.424Z,99.90
2018-11-05T22:00:19.081Z,99.90
2018-11-05T22:02:54.498Z,99.90
2018-11-05T22:05:23.776Z,99.90
2018-11-05T22:07:53.032Z,99.90
2018-11-05T22:10:22.292Z,99.90
2018-11-05T22:12:51.604Z,99.90
2018-11-05T22:15:20.820Z,99.90
2018-11-05T22:17:50.065Z,99.90
2018-11-05T22:20:19.341Z,99.90
2018-11-05T22:22:48.694Z,99.90
2018-11-05T22:25:17.922Z,99.90
2018-11-05T22:27:47.152Z,99.90
2018-11-05T22:30:16.397Z,99.90
2018-11-05T22:32:45.668Z,99.90
2018-11-05T22:35:14.916Z,99.90
2018-11-05T22:37:44.160Z,99.90
2018-11-05T22:40:14.633Z,99.90
2018-11-05T22:42:43.925Z,99.90
2018-11-05T22:45:14.449Z,99.90
2018-11-05T22:47:44.467Z,99.90
2018-11-05T22:50:13.777Z,99.90
2018-11-05T22:52:43.481Z,99.90
2018-11-05T22:55:12.710Z,99.90
2018-11-05T22:57:41.968Z,99.90
2018-11-05T23:00:21.650Z,99.90
2018-11-05T23:02:57.090Z,99.90
2018-11-05T23:05:26.441Z,99.90
2018-11-05T23:07:56.484Z,99.90
2018-11-05T23:10:25.780Z,99.90
2018-11-05T23:12:55.088Z,99.90
2018-11-05T23:15:24.385Z,99.90
2018-11-05T23:17:53.631Z,99.90
2018-11-05T23:20:22.916Z,99.90
2018-11-05T23:22:52.284Z,99.90
2018-11-05T23:25:21.613Z,99.90
2018-11-05T23:27:50.879Z,99.90
2018-11-05T23:30:20.113Z,99.90
2018-11-05T23:32:49.378Z,99.90
2018-11-05T23:35:18.649Z,99.90
2018-11-05T23:37:47.985Z,99.90
2018-11-05T23:40:17.249Z,99.90
2018-11-05T23:42:46.577Z,99.90
2018-11-05T23:45:16.707Z,99.90
2018-11-05T23:47:45.936Z,99.90
2018-11-05T23:50:15.209Z,99.90
2018-11-05T23:52:44.496Z,99.90
2018-11-05T23:55:13.769Z,99.90
2018-11-05T23:57:43.000Z,99.90
